sensor_id;sensor_type;location;lat;lon;timestamp;temperature;humidity
12578;DHT22;6354;51.026;8.968;2023-04-01T00:00:33;9.40;99.90
12578;DHT22;6354;51.026;8.968;2023-04-01T00:03:01;9.30;99.90
12578;DHT22;6354;51.026;8.968;2023-04-01T00:05:30;9.40;99.90
12578;DHT22;6354;51.026;8.968;2023-04-01T00:07:58;9.40;99.90
12578;DHT22;6354;51.026;8.968;2023-04-01T00:10:27;9.40;99.90
12578;DHT22;6354;51.026;8.968;2023-04-01T00:12:55;9.40;99.90
12578;DHT22;6354;51.026;8.968;2023-04-01T00:15:23;9.40;99.90
12578;DHT22;6354;51.026;8.968;2023-04-01T00:17:52;9.50;99.90
12578;DHT22;6354;51.026;8.968;2023-04-01T00:20:21;9.40;99.90
12578;DHT22;6354;51.026;8.968;2023-04-01T00:22:49;9.40;99.90
12578;DHT22;6354;51.026;8.968;2023-04-01T00:25:18;9.40;99.90
12578;DHT22;6354;51.026;8.968;2023-04-01T00:27:46;9.40;99.90
12578;DHT22;6354;51.026;8.968;2023-04-01T00:30:14;9.40;99.90
12578;DHT22;6354;51.026;8.968;2023-04-01T00:32:42;9.40;99.90
12578;DHT22;6354;51.026;8.968;2023-04-01T00:35:12;9.40;99.90
12578;DHT22;6354;51.026;8.968;2023-04-01T00:37:40;9.40;99.90
12578;DHT22;6354;51.026;8.968;2023-04-01T00:40:11;9.30;99.90
12578;DHT22;6354;51.026;8.968;2023-04-01T00:42:48;9.30;99.90
12578;DHT22;6354;51.026;8.968;2023-04-01T00:45:32;9.30;99.90
12578;DHT22;6354;51.026;8.968;2023-04-01T00:48:03;9.30;99.90
12578;DHT22;6354;51.026;8.968;2023-04-01T00:50:36;9.30;99.90
12578;DHT22;6354;51.026;8.968;2023-04-01T00:53:05;9.30;99.90
12578;DHT22;6354;51.026;8.968;2023-04-01T00:55:38;9.30;99.90
12578;DHT22;6354;51.026;8.968;2023-04-01T00:58:13;9.30;99.90
12578;DHT22;6354;51.026;8.968;2023-04-01T01:00:42;9.30;99.90
12578;DHT22;6354;51.026;8.968;2023-04-01T01:03:10;9.30;99.90
12578;DHT22;6354;51.026;8.968;2023-04-01T01:05:55;9.30;99.90
12578;DHT22;6354;51.026;8.968;2023-04-01T01:08:33;9.30;99.90
12578;DHT22;6354;51.026;8.968;2023-04-01T01:11:08;9.20;99.90
12578;DHT22;6354;51.026;8.968;2023-04-01T01:13:45;9.20;99.90
12578;DHT22;6354;51.026;8.968;2023-04-01T01:16:20;9.20;99.90
12578;DHT22;6354;51.026;8.968;2023-04-01T01:18:54;9.20;99.90
12578;DHT22;6354;51.026;8.968;2023-04-01T01:21:48;9.20;99.90
12578;DHT22;6354;51.026;8.968;2023-04-01T01:24:29;9.20;99.90
12578;DHT22;6354;51.026;8.968;2023-04-01T01:27:02;9.20;99.90
12578;DHT22;6354;51.026;8.968;2023-04-01T01:30:00;9.20;99.90
12578;DHT22;6354;51.026;8.968;2023-04-01T01:32:55;9.20;99.90
12578;DHT22;6354;51.026;8.968;2023-04-01T01:35:31;9.20;99.90
12578;DHT22;6354;51.026;8.968;2023-04-01T01:38:04;9.20;99.90
12578;DHT22;6354;51.026;8.968;2023-04-01T01:40:34;9.20;99.90
12578;DHT22;6354;51.026;8.968;2023-04-01T01:43:06;9.20;99.90
12578;DHT22;6354;51.026;8.968;2023-04-01T01:45:38;9.20;99.90
12578;DHT22;6354;51.026;8.968;2023-04-01T01:48:08;9.20;99.90
12578;DHT22;6354;51.026;8.968;2023-04-01T01:50:40;9.20;99.90
12578;DHT22;6354;51.026;8.968;2023-04-01T01:53:11;9.20;99.90
12578;DHT22;6354;51.026;8.968;2023-04-01T01:55:40;9.20;99.90
12578;DHT22;6354;51.026;8.968;2023-04-01T01:58:12;9.20;99.90
12578;DHT22;6354;51.026;8.968;2023-04-01T02:00:44;9.20;99.90
12578;DHT22;6354;51.026;8.968;2023-04-01T02:03:13;9.10;99.90
12578;DHT22;6354;51.026;8.968;2023-04-01T02:05:44;9.20;99.90
12578;DHT22;6354;51.026;8.968;2023-04-01T02:08:15;9.10;99.90
12578;DHT22;6354;51.026;8.968;2023-04-01T02:10:49;9.10;99.90
12578;DHT22;6354;51.026;8.968;2023-04-01T02:13:24;9.10;99.90
12578;DHT22;6354;51.026;8.968;2023-04-01T02:15:56;9.10;99.90
12578;DHT22;6354;51.026;8.968;2023-04-01T02:18:26;9.10;99.90
12578;DHT22;6354;51.026;8.968;2023-04-01T02:20:59;9.10;99.90
12578;DHT22;6354;51.026;8.968;2023-04-01T02:23:28;9.10;99.90
12578;DHT22;6354;51.026;8.968;2023-04-01T02:25:56;9.10;99.90
12578;DHT22;6354;51.026;8.968;2023-04-01T02:28:25;9.10;99.90
12578;DHT22;6354;51.026;8.968;2023-04-01T02:30:54;9.10;99.90
12578;DHT22;6354;51.026;8.968;2023-04-01T02:33:23;9.00;99.90
12578;DHT22;6354;51.026;8.968;2023-04-01T02:35:52;9.10;99.90
12578;DHT22;6354;51.026;8.968;2023-04-01T02:38:21;9.10;99.90
12578;DHT22;6354;51.026;8.968;2023-04-01T02:40:52;9.10;99.90
12578;DHT22;6354;51.026;8.968;2023-04-01T02:43:23;9.00;99.90
12578;DHT22;6354;51.026;8.968;2023-04-01T02:45:52;9.00;99.90
12578;DHT22;6354;51.026;8.968;2023-04-01T02:48:20;9.00;99.90
12578;DHT22;6354;51.026;8.968;2023-04-01T02:50:48;9.00;99.90
12578;DHT22;6354;51.026;8.968;2023-04-01T02:53:16;9.00;99.90
12578;DHT22;6354;51.026;8.968;2023-04-01T02:55:46;9.00;99.90
12578;DHT22;6354;51.026;8.968;2023-04-01T02:58:17;9.10;99.90
12578;DHT22;6354;51.026;8.968;2023-04-01T03:00:45;9.00;99.90
12578;DHT22;6354;51.026;8.968;2023-04-01T03:03:13;9.00;99.90
12578;DHT22;6354;51.026;8.968;2023-04-01T03:05:41;9.00;99.90
12578;DHT22;6354;51.026;8.968;2023-04-01T03:08:10;8.90;99.90
12578;DHT22;6354;51.026;8.968;2023-04-01T03:10:38;8.90;99.90
12578;DHT22;6354;51.026;8.968;2023-04-01T03:13:08;8.90;99.90
12578;DHT22;6354;51.026;8.968;2023-04-01T03:15:36;8.90;99.90
12578;DHT22;6354;51.026;8.968;2023-04-01T03:18:04;8.90;99.90
12578;DHT22;6354;51.026;8.968;2023-04-01T03:20:32;8.90;99.90
12578;DHT22;6354;51.026;8.968;2023-04-01T03:23:00;8.90;99.90
12578;DHT22;6354;51.026;8.968;2023-04-01T03:25:28;8.90;99.90
12578;DHT22;6354;51.026;8.968;2023-04-01T03:27:57;8.90;99.90
12578;DHT22;6354;51.026;8.968;2023-04-01T03:30:27;8.90;99.90
12578;DHT22;6354;51.026;8.968;2023-04-01T03:32:57;8.90;99.90
12578;DHT22;6354;51.026;8.968;2023-04-01T03:35:26;8.80;99.90
12578;DHT22;6354;51.026;8.968;2023-04-01T03:37:54;8.80;99.90
12578;DHT22;6354;51.026;8.968;2023-04-01T03:40:23;8.90;99.90
12578;DHT22;6354;51.026;8.968;2023-04-01T03:42:52;8.90;99.90
12578;DHT22;6354;51.026;8.968;2023-04-01T03:45:21;8.90;99.90
12578;DHT22;6354;51.026;8.968;2023-04-01T03:47:50;8.80;99.90
12578;DHT22;6354;51.026;8.968;2023-04-01T03:50:18;8.80;99.90
12578;DHT22;6354;51.026;8.968;2023-04-01T03:52:46;8.80;99.90
12578;DHT22;6354;51.026;8.968;2023-04-01T03:55:14;8.80;99.90
12578;DHT22;6354;51.026;8.968;2023-04-01T03:57:43;8.80;99.90
12578;DHT22;6354;51.026;8.968;2023-04-01T04:00:11;8.80;99.90
12578;DHT22;6354;51.026;8.968;2023-04-01T04:02:40;8.70;99.90
12578;DHT22;6354;51.026;8.968;2023-04-01T04:05:09;8.80;99.90
12578;DHT22;6354;51.026;8.968;2023-04-01T04:07:38;8.80;99.90
12578;DHT22;6354;51.026;8.968;2023-04-01T04:10:07;8.70;99.90
12578;DHT22;6354;51.026;8.968;2023-04-01T04:12:35;8.70;99.90
12578;DHT22;6354;51.026;8.968;2023-04-01T04:15:03;8.80;99.90
12578;DHT22;6354;51.026;8.968;2023-04-01T04:17:31;8.70;99.90
12578;DHT22;6354;51.026;8.968;2023-04-01T04:19:59;8.80;99.90
12578;DHT22;6354;51.026;8.968;2023-04-01T04:22:29;8.80;99.90
12578;DHT22;6354;51.026;8.968;2023-04-01T04:24:57;8.80;99.90
12578;DHT22;6354;51.026;8.968;2023-04-01T04:27:25;8.80;99.90
12578;DHT22;6354;51.026;8.968;2023-04-01T04:29:53;8.80;99.90
12578;DHT22;6354;51.026;8.968;2023-04-01T04:32:21;8.80;99.90
12578;DHT22;6354;51.026;8.968;2023-04-01T04:34:49;8.70;99.90
12578;DHT22;6354;51.026;8.968;2023-04-01T04:37:17;8.80;99.90
12578;DHT22;6354;51.026;8.968;2023-04-01T04:39:46;8.80;99.90
12578;DHT22;6354;51.026;8.968;2023-04-01T04:42:14;8.80;99.90
12578;DHT22;6354;51.026;8.968;2023-04-01T04:44:42;8.80;99.90
12578;DHT22;6354;51.026;8.968;2023-04-01T04:47:10;8.70;99.90
12578;DHT22;6354;51.026;8.968;2023-04-01T04:49:38;8.70;99.90
12578;DHT22;6354;51.026;8.968;2023-04-01T04:52:06;8.80;99.90
12578;DHT22;6354;51.026;8.968;2023-04-01T04:54:34;8.80;99.90
12578;DHT22;6354;51.026;8.968;2023-04-01T04:57:03;8.80;99.90
12578;DHT22;6354;51.026;8.968;2023-04-01T04:59:32;8.80;99.90
12578;DHT22;6354;51.026;8.968;2023-04-01T05:02:01;8.80;99.90
12578;DHT22;6354;51.026;8.968;2023-04-01T05:04:29;8.80;99.90
12578;DHT22;6354;51.026;8.968;2023-04-01T05:06:57;8.70;99.90
12578;DHT22;6354;51.026;8.968;2023-04-01T05:09:25;8.70;99.90
12578;DHT22;6354;51.026;8.968;2023-04-01T05:11:53;8.70;99.90
12578;DHT22;6354;51.026;8.968;2023-04-01T05:14:22;8.70;99.90
12578;DHT22;6354;51.026;8.968;2023-04-01T05:16:50;8.70;99.90
12578;DHT22;6354;51.026;8.968;2023-04-01T05:19:18;8.70;99.90
12578;DHT22;6354;51.026;8.968;2023-04-01T05:21:46;8.70;99.90
12578;DHT22;6354;51.026;8.968;2023-04-01T05:24:14;8.70;99.90
12578;DHT22;6354;51.026;8.968;2023-04-01T05:26:42;8.70;99.90
12578;DHT22;6354;51.026;8.968;2023-04-01T05:29:10;8.70;99.90
12578;DHT22;6354;51.026;8.968;2023-04-01T05:31:40;8.70;99.90
12578;DHT22;6354;51.026;8.968;2023-04-01T05:34:08;8.70;99.90
12578;DHT22;6354;51.026;8.968;2023-04-01T05:36:36;8.70;99.90
12578;DHT22;6354;51.026;8.968;2023-04-01T05:39:04;8.80;99.90
12578;DHT22;6354;51.026;8.968;2023-04-01T05:41:34;8.80;99.90
12578;DHT22;6354;51.026;8.968;2023-04-01T05:44:03;8.80;99.90
12578;DHT22;6354;51.026;8.968;2023-04-01T05:46:31;8.80;99.90
12578;DHT22;6354;51.026;8.968;2023-04-01T05:49:01;8.80;99.90
12578;DHT22;6354;51.026;8.968;2023-04-01T05:51:29;8.70;99.90
12578;DHT22;6354;51.026;8.968;2023-04-01T05:53:57;8.70;99.90
12578;DHT22;6354;51.026;8.968;2023-04-01T05:56:26;8.70;99.90
12578;DHT22;6354;51.026;8.968;2023-04-01T05:58:54;8.70;99.90
12578;DHT22;6354;51.026;8.968;2023-04-01T06:01:22;8.60;99.90
12578;DHT22;6354;51.026;8.968;2023-04-01T06:03:50;8.70;99.90
12578;DHT22;6354;51.026;8.968;2023-04-01T06:06:24;8.70;99.90
12578;DHT22;6354;51.026;8.968;2023-04-01T06:08:52;8.80;99.90
12578;DHT22;6354;51.026;8.968;2023-04-01T06:11:30;8.80;99.90
12578;DHT22;6354;51.026;8.968;2023-04-01T06:14:11;8.70;99.90
12578;DHT22;6354;51.026;8.968;2023-04-01T06:16:58;8.80;99.90
12578;DHT22;6354;51.026;8.968;2023-04-01T06:19:38;8.80;99.90
12578;DHT22;6354;51.026;8.968;2023-04-01T06:25:28;8.70;99.90
12578;DHT22;6354;51.026;8.968;2023-04-01T06:28:29;8.70;99.90
12578;DHT22;6354;51.026;8.968;2023-04-01T06:31:05;8.80;99.90
12578;DHT22;6354;51.026;8.968;2023-04-01T06:33:46;8.80;99.90
12578;DHT22;6354;51.026;8.968;2023-04-01T06:36:39;8.90;99.90
12578;DHT22;6354;51.026;8.968;2023-04-01T06:39:31;8.80;99.90
12578;DHT22;6354;51.026;8.968;2023-04-01T06:42:20;8.90;99.90
12578;DHT22;6354;51.026;8.968;2023-04-01T06:44:57;8.90;99.90
12578;DHT22;6354;51.026;8.968;2023-04-01T06:47:36;8.90;99.90
12578;DHT22;6354;51.026;8.968;2023-04-01T06:50:12;8.90;99.90
12578;DHT22;6354;51.026;8.968;2023-04-01T06:52:51;8.90;99.90
12578;DHT22;6354;51.026;8.968;2023-04-01T06:55:27;8.90;99.90
12578;DHT22;6354;51.026;8.968;2023-04-01T06:58:04;8.90;99.90
12578;DHT22;6354;51.026;8.968;2023-04-01T07:00:36;9.00;99.90
12578;DHT22;6354;51.026;8.968;2023-04-01T07:03:16;9.00;99.90
12578;DHT22;6354;51.026;8.968;2023-04-01T07:05:47;9.00;99.90
12578;DHT22;6354;51.026;8.968;2023-04-01T07:08:19;9.10;99.90
12578;DHT22;6354;51.026;8.968;2023-04-01T07:10:51;9.10;99.90
12578;DHT22;6354;51.026;8.968;2023-04-01T07:13:26;9.10;99.90
12578;DHT22;6354;51.026;8.968;2023-04-01T07:16:00;9.10;99.90
12578;DHT22;6354;51.026;8.968;2023-04-01T07:18:35;9.10;99.90
12578;DHT22;6354;51.026;8.968;2023-04-01T07:21:05;9.20;99.90
12578;DHT22;6354;51.026;8.968;2023-04-01T07:23:40;9.20;99.90
12578;DHT22;6354;51.026;8.968;2023-04-01T07:26:15;9.30;99.90
12578;DHT22;6354;51.026;8.968;2023-04-01T07:28:46;9.40;99.90
12578;DHT22;6354;51.026;8.968;2023-04-01T07:31:20;9.40;99.90
12578;DHT22;6354;51.026;8.968;2023-04-01T07:33:56;9.40;99.90
12578;DHT22;6354;51.026;8.968;2023-04-01T07:36:30;9.40;99.90
12578;DHT22;6354;51.026;8.968;2023-04-01T07:39:07;9.50;99.90
12578;DHT22;6354;51.026;8.968;2023-04-01T07:41:45;9.50;99.90
12578;DHT22;6354;51.026;8.968;2023-04-01T07:44:24;9.50;99.90
12578;DHT22;6354;51.026;8.968;2023-04-01T07:47:03;9.50;99.90
12578;DHT22;6354;51.026;8.968;2023-04-01T07:49:40;9.60;99.90
12578;DHT22;6354;51.026;8.968;2023-04-01T07:52:15;9.60;99.90
12578;DHT22;6354;51.026;8.968;2023-04-01T07:54:51;9.60;99.90
12578;DHT22;6354;51.026;8.968;2023-04-01T07:57:23;9.60;99.90
12578;DHT22;6354;51.026;8.968;2023-04-01T07:59:58;9.60;99.90
12578;DHT22;6354;51.026;8.968;2023-04-01T08:02:38;9.60;99.90
12578;DHT22;6354;51.026;8.968;2023-04-01T08:05:19;9.70;99.90
12578;DHT22;6354;51.026;8.968;2023-04-01T08:07:57;9.80;99.90
12578;DHT22;6354;51.026;8.968;2023-04-01T08:10:34;9.80;99.90
12578;DHT22;6354;51.026;8.968;2023-04-01T08:13:12;9.80;99.90
12578;DHT22;6354;51.026;8.968;2023-04-01T08:15:51;9.80;99.90
12578;DHT22;6354;51.026;8.968;2023-04-01T08:18:28;9.70;99.90
12578;DHT22;6354;51.026;8.968;2023-04-01T08:21:01;9.80;99.90
12578;DHT22;6354;51.026;8.968;2023-04-01T08:23:32;9.80;99.90
12578;DHT22;6354;51.026;8.968;2023-04-01T08:26:05;9.80;99.90
12578;DHT22;6354;51.026;8.968;2023-04-01T08:28:39;9.80;99.90
12578;DHT22;6354;51.026;8.968;2023-04-01T08:31:13;9.80;99.90
12578;DHT22;6354;51.026;8.968;2023-04-01T08:33:46;9.80;99.90
12578;DHT22;6354;51.026;8.968;2023-04-01T08:36:17;9.90;99.90
12578;DHT22;6354;51.026;8.968;2023-04-01T08:38:50;9.90;99.90
12578;DHT22;6354;51.026;8.968;2023-04-01T08:44:34;10.10;99.90
12578;DHT22;6354;51.026;8.968;2023-04-01T08:53:00;10.30;99.90
12578;DHT22;6354;51.026;8.968;2023-04-01T08:55:38;10.50;99.90
12578;DHT22;6354;51.026;8.968;2023-04-01T08:58:24;10.50;99.90
12578;DHT22;6354;51.026;8.968;2023-04-01T09:00:57;10.50;99.90
12578;DHT22;6354;51.026;8.968;2023-04-01T09:03:37;10.70;99.90
12578;DHT22;6354;51.026;8.968;2023-04-01T09:06:32;10.80;99.90
12578;DHT22;6354;51.026;8.968;2023-04-01T09:09:20;10.90;99.90
12578;DHT22;6354;51.026;8.968;2023-04-01T09:12:18;10.90;99.90
12578;DHT22;6354;51.026;8.968;2023-04-01T09:18:16;10.60;99.90
12578;DHT22;6354;51.026;8.968;2023-04-01T09:27:03;10.70;99.90
12578;DHT22;6354;51.026;8.968;2023-04-01T09:29:53;10.60;99.90
12578;DHT22;6354;51.026;8.968;2023-04-01T09:35:34;10.80;99.90
12578;DHT22;6354;51.026;8.968;2023-04-01T09:38:20;10.90;99.90
12578;DHT22;6354;51.026;8.968;2023-04-01T09:40:55;11.10;99.90
12578;DHT22;6354;51.026;8.968;2023-04-01T09:43:27;10.80;99.90
12578;DHT22;6354;51.026;8.968;2023-04-01T09:46:18;10.90;99.90
12578;DHT22;6354;51.026;8.968;2023-04-01T09:49:13;10.90;99.90
12578;DHT22;6354;51.026;8.968;2023-04-01T09:51:54;11.00;99.90
12578;DHT22;6354;51.026;8.968;2023-04-01T09:54:42;11.00;99.90
12578;DHT22;6354;51.026;8.968;2023-04-01T09:57:36;11.00;99.90
12578;DHT22;6354;51.026;8.968;2023-04-01T10:00:39;11.00;99.90
12578;DHT22;6354;51.026;8.968;2023-04-01T10:03:54;11.00;99.90
12578;DHT22;6354;51.026;8.968;2023-04-01T10:13:13;10.90;99.90
12578;DHT22;6354;51.026;8.968;2023-04-01T10:16:00;10.90;99.90
12578;DHT22;6354;51.026;8.968;2023-04-01T10:18:52;11.10;99.90
12578;DHT22;6354;51.026;8.968;2023-04-01T10:28:04;11.20;99.90
12578;DHT22;6354;51.026;8.968;2023-04-01T10:34:19;11.10;99.90
12578;DHT22;6354;51.026;8.968;2023-04-01T10:36:57;11.10;99.90
12578;DHT22;6354;51.026;8.968;2023-04-01T10:39:50;11.10;99.90
12578;DHT22;6354;51.026;8.968;2023-04-01T10:42:45;11.20;99.90
12578;DHT22;6354;51.026;8.968;2023-04-01T10:45:58;11.10;99.90
12578;DHT22;6354;51.026;8.968;2023-04-01T10:49:02;11.20;99.90
12578;DHT22;6354;51.026;8.968;2023-04-01T10:54:49;11.30;99.90
12578;DHT22;6354;51.026;8.968;2023-04-01T11:03:54;11.10;99.90
12578;DHT22;6354;51.026;8.968;2023-04-01T11:10:10;11.20;99.90
12578;DHT22;6354;51.026;8.968;2023-04-01T11:16:33;11.40;99.90
12578;DHT22;6354;51.026;8.968;2023-04-01T11:19:52;11.50;99.90
12578;DHT22;6354;51.026;8.968;2023-04-01T11:22:44;11.60;99.90
12578;DHT22;6354;51.026;8.968;2023-04-01T11:25:36;11.70;99.90
12578;DHT22;6354;51.026;8.968;2023-04-01T11:31:33;11.80;99.90
12578;DHT22;6354;51.026;8.968;2023-04-01T11:34:13;11.80;99.90
12578;DHT22;6354;51.026;8.968;2023-04-01T11:36:52;11.70;99.90
12578;DHT22;6354;51.026;8.968;2023-04-01T11:39:33;11.60;99.90
12578;DHT22;6354;51.026;8.968;2023-04-01T11:42:12;11.60;99.90
12578;DHT22;6354;51.026;8.968;2023-04-01T11:44:51;11.60;99.90
12578;DHT22;6354;51.026;8.968;2023-04-01T11:47:40;11.60;99.90
12578;DHT22;6354;51.026;8.968;2023-04-01T11:50:18;11.50;99.90
12578;DHT22;6354;51.026;8.968;2023-04-01T11:53:09;11.40;99.90
12578;DHT22;6354;51.026;8.968;2023-04-01T11:55:51;11.60;99.90
12578;DHT22;6354;51.026;8.968;2023-04-01T11:58:42;11.60;99.90
12578;DHT22;6354;51.026;8.968;2023-04-01T12:01:22;11.80;99.90
12578;DHT22;6354;51.026;8.968;2023-04-01T12:04:23;11.80;99.90
12578;DHT22;6354;51.026;8.968;2023-04-01T12:07:01;11.80;99.90
12578;DHT22;6354;51.026;8.968;2023-04-01T12:09:37;11.80;99.90
12578;DHT22;6354;51.026;8.968;2023-04-01T12:12:17;11.90;99.90
12578;DHT22;6354;51.026;8.968;2023-04-01T12:14:54;11.90;99.90
12578;DHT22;6354;51.026;8.968;2023-04-01T12:17:33;11.90;99.90
12578;DHT22;6354;51.026;8.968;2023-04-01T12:20:33;11.90;99.90
12578;DHT22;6354;51.026;8.968;2023-04-01T12:23:14;11.80;99.90
12578;DHT22;6354;51.026;8.968;2023-04-01T12:26:10;11.80;99.90
12578;DHT22;6354;51.026;8.968;2023-04-01T12:28:57;12.00;99.90
12578;DHT22;6354;51.026;8.968;2023-04-01T12:31:34;12.00;99.90
12578;DHT22;6354;51.026;8.968;2023-04-01T12:34:20;12.00;99.90
12578;DHT22;6354;51.026;8.968;2023-04-01T12:36:59;12.10;99.90
12578;DHT22;6354;51.026;8.968;2023-04-01T12:40:01;11.90;99.90
12578;DHT22;6354;51.026;8.968;2023-04-01T12:42:42;11.80;99.90
12578;DHT22;6354;51.026;8.968;2023-04-01T12:45:27;11.60;99.90
12578;DHT22;6354;51.026;8.968;2023-04-01T12:48:10;11.90;99.90
12578;DHT22;6354;51.026;8.968;2023-04-01T12:54:07;12.30;99.90
12578;DHT22;6354;51.026;8.968;2023-04-01T12:56:46;12.40;99.90
12578;DHT22;6354;51.026;8.968;2023-04-01T12:59:26;12.60;99.90
12578;DHT22;6354;51.026;8.968;2023-04-01T13:02:01;12.80;99.90
12578;DHT22;6354;51.026;8.968;2023-04-01T13:07:43;12.60;99.90
12578;DHT22;6354;51.026;8.968;2023-04-01T13:10:26;12.70;99.90
12578;DHT22;6354;51.026;8.968;2023-04-01T13:13:20;12.70;99.90
12578;DHT22;6354;51.026;8.968;2023-04-01T13:15:56;12.80;99.90
12578;DHT22;6354;51.026;8.968;2023-04-01T13:18:32;12.90;99.90
12578;DHT22;6354;51.026;8.968;2023-04-01T13:21:08;12.90;99.90
12578;DHT22;6354;51.026;8.968;2023-04-01T13:23:53;13.00;99.90
12578;DHT22;6354;51.026;8.968;2023-04-01T13:26:27;13.10;99.90
12578;DHT22;6354;51.026;8.968;2023-04-01T13:29:01;13.10;99.90
12578;DHT22;6354;51.026;8.968;2023-04-01T13:31:55;13.10;99.90
12578;DHT22;6354;51.026;8.968;2023-04-01T13:34:33;13.10;99.90
12578;DHT22;6354;51.026;8.968;2023-04-01T13:37:15;13.20;99.90
12578;DHT22;6354;51.026;8.968;2023-04-01T13:42:51;13.30;99.90
12578;DHT22;6354;51.026;8.968;2023-04-01T13:45:24;13.30;99.90
12578;DHT22;6354;51.026;8.968;2023-04-01T13:48:27;13.40;99.90
12578;DHT22;6354;51.026;8.968;2023-04-01T13:51:14;13.40;99.90
12578;DHT22;6354;51.026;8.968;2023-04-01T13:54:04;13.40;99.90
12578;DHT22;6354;51.026;8.968;2023-04-01T13:56:42;13.40;99.90
12578;DHT22;6354;51.026;8.968;2023-04-01T13:59:29;13.50;99.90
12578;DHT22;6354;51.026;8.968;2023-04-01T14:02:07;13.50;99.90
12578;DHT22;6354;51.026;8.968;2023-04-01T14:04:56;13.40;99.90
12578;DHT22;6354;51.026;8.968;2023-04-01T14:07:40;13.40;99.90
12578;DHT22;6354;51.026;8.968;2023-04-01T14:10:20;13.30;99.90
12578;DHT22;6354;51.026;8.968;2023-04-01T14:12:58;13.20;99.90
12578;DHT22;6354;51.026;8.968;2023-04-01T14:18:46;13.20;99.90
12578;DHT22;6354;51.026;8.968;2023-04-01T14:21:40;13.10;99.90
12578;DHT22;6354;51.026;8.968;2023-04-01T14:24:20;13.10;99.90
12578;DHT22;6354;51.026;8.968;2023-04-01T14:27:30;13.00;99.90
12578;DHT22;6354;51.026;8.968;2023-04-01T14:30:26;13.00;99.90
12578;DHT22;6354;51.026;8.968;2023-04-01T14:33:00;13.00;99.90
12578;DHT22;6354;51.026;8.968;2023-04-01T14:35:37;13.00;99.90
12578;DHT22;6354;51.026;8.968;2023-04-01T14:38:31;13.10;99.90
12578;DHT22;6354;51.026;8.968;2023-04-01T14:41:17;13.00;99.90
12578;DHT22;6354;51.026;8.968;2023-04-01T14:50:06;13.00;99.90
12578;DHT22;6354;51.026;8.968;2023-04-01T14:52:38;13.10;99.90
12578;DHT22;6354;51.026;8.968;2023-04-01T14:55:28;13.20;99.90
12578;DHT22;6354;51.026;8.968;2023-04-01T14:58:07;13.20;99.90
12578;DHT22;6354;51.026;8.968;2023-04-01T15:00:54;13.20;99.90
12578;DHT22;6354;51.026;8.968;2023-04-01T15:03:26;13.10;99.90
12578;DHT22;6354;51.026;8.968;2023-04-01T15:06:15;13.10;99.90
12578;DHT22;6354;51.026;8.968;2023-04-01T15:08:51;13.10;99.90
12578;DHT22;6354;51.026;8.968;2023-04-01T15:11:32;13.00;99.90
12578;DHT22;6354;51.026;8.968;2023-04-01T15:14:24;13.10;99.90
12578;DHT22;6354;51.026;8.968;2023-04-01T15:17:01;13.10;99.90
12578;DHT22;6354;51.026;8.968;2023-04-01T15:19:41;13.10;99.90
12578;DHT22;6354;51.026;8.968;2023-04-01T15:22:41;13.00;99.90
12578;DHT22;6354;51.026;8.968;2023-04-01T15:25:30;13.00;99.90
12578;DHT22;6354;51.026;8.968;2023-04-01T15:28:05;13.00;99.90
12578;DHT22;6354;51.026;8.968;2023-04-01T15:30:37;13.10;99.90
12578;DHT22;6354;51.026;8.968;2023-04-01T15:33:42;13.10;99.90
12578;DHT22;6354;51.026;8.968;2023-04-01T15:36:26;13.10;99.90
12578;DHT22;6354;51.026;8.968;2023-04-01T15:39:05;13.00;99.90
12578;DHT22;6354;51.026;8.968;2023-04-01T15:41:43;12.90;99.90
12578;DHT22;6354;51.026;8.968;2023-04-01T15:44:39;12.80;99.90
12578;DHT22;6354;51.026;8.968;2023-04-01T15:47:31;12.80;99.90
12578;DHT22;6354;51.026;8.968;2023-04-01T15:50:21;12.70;99.90
12578;DHT22;6354;51.026;8.968;2023-04-01T15:53:02;12.70;99.90
12578;DHT22;6354;51.026;8.968;2023-04-01T15:55:37;12.70;99.90
12578;DHT22;6354;51.026;8.968;2023-04-01T15:58:24;12.70;99.90
12578;DHT22;6354;51.026;8.968;2023-04-01T16:01:01;12.80;99.90
12578;DHT22;6354;51.026;8.968;2023-04-01T16:03:37;12.80;99.90
12578;DHT22;6354;51.026;8.968;2023-04-01T16:09:19;12.80;99.90
12578;DHT22;6354;51.026;8.968;2023-04-01T16:11:53;12.70;99.90
12578;DHT22;6354;51.026;8.968;2023-04-01T16:14:35;12.70;99.90
12578;DHT22;6354;51.026;8.968;2023-04-01T16:17:33;12.70;99.90
12578;DHT22;6354;51.026;8.968;2023-04-01T16:20:17;12.70;99.90
12578;DHT22;6354;51.026;8.968;2023-04-01T16:22:53;12.70;99.90
12578;DHT22;6354;51.026;8.968;2023-04-01T16:25:31;12.70;99.90
12578;DHT22;6354;51.026;8.968;2023-04-01T16:28:16;12.60;99.90
12578;DHT22;6354;51.026;8.968;2023-04-01T16:30:55;12.60;99.90
12578;DHT22;6354;51.026;8.968;2023-04-01T16:33:32;12.60;99.90
12578;DHT22;6354;51.026;8.968;2023-04-01T16:36:09;12.60;99.90
12578;DHT22;6354;51.026;8.968;2023-04-01T16:38:41;12.50;99.90
12578;DHT22;6354;51.026;8.968;2023-04-01T16:41:15;12.50;99.90
12578;DHT22;6354;51.026;8.968;2023-04-01T16:43:45;12.40;99.90
12578;DHT22;6354;51.026;8.968;2023-04-01T16:46:32;12.30;99.90
12578;DHT22;6354;51.026;8.968;2023-04-01T16:49:24;12.30;99.90
12578;DHT22;6354;51.026;8.968;2023-04-01T16:51:57;12.30;99.90
12578;DHT22;6354;51.026;8.968;2023-04-01T16:54:30;12.20;99.90
12578;DHT22;6354;51.026;8.968;2023-04-01T16:57:10;12.20;99.90
12578;DHT22;6354;51.026;8.968;2023-04-01T16:59:47;12.10;99.90
12578;DHT22;6354;51.026;8.968;2023-04-01T17:02:23;12.00;99.90
12578;DHT22;6354;51.026;8.968;2023-04-01T17:04:58;12.00;99.90
12578;DHT22;6354;51.026;8.968;2023-04-01T17:07:38;12.00;99.90
12578;DHT22;6354;51.026;8.968;2023-04-01T17:13:29;11.90;99.90
12578;DHT22;6354;51.026;8.968;2023-04-01T17:18:59;11.80;99.90
12578;DHT22;6354;51.026;8.968;2023-04-01T17:21:43;11.80;99.90
12578;DHT22;6354;51.026;8.968;2023-04-01T17:24:26;11.80;99.90
12578;DHT22;6354;51.026;8.968;2023-04-01T17:27:02;11.80;99.90
12578;DHT22;6354;51.026;8.968;2023-04-01T17:30:03;11.80;99.90
12578;DHT22;6354;51.026;8.968;2023-04-01T17:32:45;11.80;99.90
12578;DHT22;6354;51.026;8.968;2023-04-01T17:35:19;11.80;99.90
12578;DHT22;6354;51.026;8.968;2023-04-01T17:38:01;11.70;99.90
12578;DHT22;6354;51.026;8.968;2023-04-01T17:40:55;11.60;99.90
12578;DHT22;6354;51.026;8.968;2023-04-01T17:43:33;11.70;99.90
12578;DHT22;6354;51.026;8.968;2023-04-01T17:46:20;11.60;99.90
12578;DHT22;6354;51.026;8.968;2023-04-01T17:48:55;11.50;99.90
12578;DHT22;6354;51.026;8.968;2023-04-01T17:51:32;11.50;99.90
12578;DHT22;6354;51.026;8.968;2023-04-01T17:54:15;11.50;99.90
12578;DHT22;6354;51.026;8.968;2023-04-01T17:56:53;11.50;99.90
12578;DHT22;6354;51.026;8.968;2023-04-01T17:59:33;11.50;99.90
12578;DHT22;6354;51.026;8.968;2023-04-01T18:02:12;11.50;99.90
12578;DHT22;6354;51.026;8.968;2023-04-01T18:05:03;11.50;99.90
12578;DHT22;6354;51.026;8.968;2023-04-01T18:07:49;11.50;99.90
12578;DHT22;6354;51.026;8.968;2023-04-01T18:10:26;11.50;99.90
12578;DHT22;6354;51.026;8.968;2023-04-01T18:13:40;11.40;99.90
12578;DHT22;6354;51.026;8.968;2023-04-01T18:16:26;11.40;99.90
12578;DHT22;6354;51.026;8.968;2023-04-01T18:19:02;11.40;99.90
12578;DHT22;6354;51.026;8.968;2023-04-01T18:21:43;11.30;99.90
12578;DHT22;6354;51.026;8.968;2023-04-01T18:24:18;11.30;99.90
12578;DHT22;6354;51.026;8.968;2023-04-01T18:27:00;11.20;99.90
12578;DHT22;6354;51.026;8.968;2023-04-01T18:29:37;11.20;99.90